Time;durP1;ratioP1;P1;durP2;ratioP2;P2;SDS_P1;SDS_P2;PMS_P1;PMS_P2;Temp;Humidity;BMP_temperature;BMP_pressure;BME280_temperature;BME280_humidity;BME280_pressure;Samples;Min_cycle;Max_cycle;Signal;HPM_P1;HPM_P2
2022/11/24 00:01:18;;;;;;;59.27;30.07;;;;;;;2.45;89.37;97995.87;2249436;79;20948;-83
2022/11/24 00:04:18;;;;;;;69.20;30.10;;;;;;;2.46;89.36;97992.05;2249558;79;20947;-83
2022/11/24 00:07:19;;;;;;;71.13;31.93;;;;;;;2.48;89.37;97991.69;2240155;79;20952;-84
2022/11/24 00:10:19;;;;;;;66.13;31.30;;;;;;;2.46;89.14;97988.61;2239325;79;21281;-84
2022/11/24 00:13:20;;;;;;;63.60;30.87;;;;;;;2.44;89.20;97990.27;2239524;79;20928;-84
2022/11/24 00:16:21;;;;;;;65.10;30.73;;;;;;;2.45;89.38;97994.17;2239774;79;21333;-83
2022/11/24 00:19:21;;;;;;;66.30;30.27;;;;;;;2.45;89.36;97992.89;2239037;79;21011;-84
2022/11/24 00:22:21;;;;;;;60.33;29.97;;;;;;;2.42;89.37;98002.22;2239296;79;21097;-84
2022/11/24 00:25:22;;;;;;;61.33;28.27;;;;;;;2.47;89.44;98003.23;2238826;79;21297;-84
2022/11/24 00:28:22;;;;;;;64.13;29.23;;;;;;;2.47;89.45;97998.95;2238966;79;20956;-84
2022/11/24 00:31:23;;;;;;;59.63;29.47;;;;;;;2.46;89.36;98002.36;2239169;79;20916;-84
2022/11/24 00:34:23;;;;;;;66.33;30.43;;;;;;;2.47;89.50;98005.81;2239270;79;20939;-85
2022/11/24 00:37:27;;;;;;;67.03;30.87;;;;;;;2.46;89.60;98000.20;2238990;79;21328;-85
2022/11/24 00:40:27;;;;;;;62.80;28.57;;;;;;;2.47;89.52;98002.82;2239169;80;20955;-86
2022/11/24 00:43:27;;;;;;;68.57;32.37;;;;;;;2.44;89.32;98010.88;2239484;80;20909;-85
2022/11/24 00:46:28;;;;;;;71.13;33.07;;;;;;;2.41;89.52;98014.64;2239744;79;20881;-84
2022/11/24 00:49:28;;;;;;;67.03;31.63;;;;;;;2.44;89.62;98009.58;2239274;79;20975;-82
2022/11/24 00:52:29;;;;;;;72.87;34.53;;;;;;;2.47;89.60;98014.41;2239769;79;20916;-82
2022/11/24 00:55:29;;;;;;;69.40;32.10;;;;;;;2.48;89.39;98012.71;2239584;79;21365;-84
2022/11/24 00:58:30;;;;;;;63.90;29.53;;;;;;;2.38;89.22;98014.13;2239225;79;20905;-84
2022/11/24 01:01:30;;;;;;;64.30;31.33;;;;;;;2.28;89.36;98009.53;2239395;79;20916;-84
2022/11/24 01:04:30;;;;;;;57.83;28.67;;;;;;;2.20;89.49;98015.73;2239612;79;20920;-83
2022/11/24 01:07:31;;;;;;;53.53;27.70;;;;;;;2.14;89.81;98016.83;2248233;79;20940;-82
2022/11/24 01:10:32;;;;;;;56.03;28.97;;;;;;;2.07;89.74;98014.01;2249236;79;20877;-82
2022/11/24 01:13:32;;;;;;;59.37;29.47;;;;;;;2.00;90.13;98014.23;2249469;79;20944;-82
2022/11/24 01:16:32;;;;;;;54.83;28.17;;;;;;;1.95;90.31;98016.20;2249091;79;20881;-83
2022/11/24 01:19:32;;;;;;;52.80;28.17;;;;;;;1.88;90.52;98014.71;2249314;79;20991;-82
2022/11/24 01:22:33;;;;;;;55.57;27.83;;;;;;;1.87;90.83;98014.66;2249187;79;20920;-84
2022/11/24 01:25:33;;;;;;;57.70;28.00;;;;;;;1.85;90.89;98012.45;2249417;79;20935;-83
2022/11/24 01:28:34;;;;;;;60.13;29.73;;;;;;;1.81;91.03;98023.05;2249462;79;20936;-85
2022/11/24 01:31:35;;;;;;;57.67;27.10;;;;;;;1.81;91.24;98020.89;2249942;79;20920;-82
2022/11/24 01:34:34;;;;;;;64.57;30.53;;;;;;;1.80;91.45;98023.88;2250003;79;20960;-82
2022/11/24 01:37:35;;;;;;;65.53;29.43;;;;;;;1.81;91.61;98026.91;2249270;79;20877;-83
2022/11/24 01:40:35;;;;;;;69.37;31.80;;;;;;;1.78;91.60;98019.51;2249389;79;20876;-84
2022/11/24 01:43:36;;;;;;;58.50;28.57;;;;;;;1.80;91.80;98021.72;2249520;79;20916;-84
2022/11/24 01:46:36;;;;;;;58.40;28.53;;;;;;;1.78;91.79;98020.38;2250888;79;20945;-85
2022/11/24 01:49:36;;;;;;;54.20;26.97;;;;;;;1.79;91.84;98021.26;2249741;79;20968;-85
2022/11/24 01:52:37;;;;;;;62.13;28.37;;;;;;;1.82;92.00;98025.22;2249631;79;20928;-84
2022/11/24 01:55:37;;;;;;;73.50;30.97;;;;;;;1.81;91.92;98025.63;2250053;79;20920;-85
2022/11/24 01:58:38;;;;;;;60.27;29.17;;;;;;;1.77;91.73;98029.34;2249403;79;20944;-82
2022/11/24 02:01:38;;;;;;;65.20;29.37;;;;;;;1.73;91.90;98032.19;2249741;79;20912;-85
2022/11/24 02:04:38;;;;;;;70.37;28.23;;;;;;;1.71;92.10;98033.83;2249402;79;20880;-85
2022/11/24 02:07:39;;;;;;;56.07;27.87;;;;;;;1.73;92.27;98040.31;2246654;79;20929;-84
2022/11/24 02:10:39;;;;;;;64.23;28.00;;;;;;;1.73;92.34;98042.89;2246079;79;20951;-83
2022/11/24 02:13:40;;;;;;;63.23;27.80;;;;;;;1.73;92.43;98039.91;2246271;79;20916;-82
2022/11/24 02:16:40;;;;;;;62.33;29.40;;;;;;;1.78;92.55;98032.38;2246144;79;20900;-83
2022/11/24 02:19:41;;;;;;;53.20;25.43;;;;;;;1.72;92.71;98045.88;2245720;79;20967;-83
2022/11/24 02:22:41;;;;;;;47.70;24.20;;;;;;;1.62;92.67;98039.95;2246222;79;20913;-82
2022/11/24 02:25:41;;;;;;;39.37;23.00;;;;;;;1.55;92.63;98043.14;2246177;79;20972;-83
2022/11/24 02:28:42;;;;;;;44.60;23.57;;;;;;;1.52;92.84;98049.06;2246245;79;20913;-83
2022/11/24 02:31:42;;;;;;;45.53;22.73;;;;;;;1.55;93.04;98038.00;2246302;79;21288;-85
2022/11/24 02:34:43;;;;;;;45.07;22.83;;;;;;;1.58;93.03;98041.97;2246202;79;20940;-83
2022/11/24 02:37:43;;;;;;;39.43;20.23;;;;;;;1.56;92.91;98039.34;2246262;79;20877;-82
2022/11/24 02:40:44;;;;;;;43.10;19.93;;;;;;;1.52;92.90;98041.34;2246118;79;20927;-85
2022/11/24 02:43:44;;;;;;;37.03;19.13;;;;;;;1.45;92.92;98038.51;2245880;79;20889;-85
2022/11/24 02:46:44;;;;;;;33.70;17.63;;;;;;;1.42;93.05;98040.56;2245585;79;20953;-85
2022/11/24 02:49:45;;;;;;;29.93;18.00;;;;;;;1.37;93.23;98044.67;2245953;79;20932;-85
2022/11/24 02:52:45;;;;;;;26.10;16.17;;;;;;;1.35;93.38;98044.16;2245783;79;21375;-84
2022/11/24 02:55:46;;;;;;;26.83;15.77;;;;;;;1.32;93.33;98037.63;2246322;79;20944;-86
2022/11/24 02:58:46;;;;;;;22.40;14.97;;;;;;;1.29;93.43;98043.53;2245856;79;20889;-83
2022/11/24 03:01:47;;;;;;;25.03;15.33;;;;;;;1.30;93.51;98040.55;2245753;79;20897;-83
2022/11/24 03:04:47;;;;;;;24.60;15.50;;;;;;;1.28;93.54;98045.64;2246014;79;20904;-83
2022/11/24 03:07:48;;;;;;;29.77;17.13;;;;;;;1.27;93.53;98046.45;2242820;79;21273;-82
2022/11/24 03:10:48;;;;;;;25.63;15.50;;;;;;;1.25;93.75;98042.55;2242511;79;20877;-84
2022/11/24 03:13:48;;;;;;;19.70;14.00;;;;;;;1.24;93.69;98045.06;2242506;79;20928;-82
2022/11/24 03:16:49;;;;;;;22.33;13.90;;;;;;;1.23;93.75;98049.33;2242526;79;20916;-81
2022/11/24 03:19:49;;;;;;;21.77;13.27;;;;;;;1.18;93.56;98048.30;2242354;79;21363;-81
2022/11/24 03:22:50;;;;;;;19.33;13.73;;;;;;;1.15;93.72;98049.87;2242411;79;20901;-86
2022/11/24 03:25:50;;;;;;;18.60;12.40;;;;;;;1.13;93.90;98055.38;2242600;79;20948;-85
2022/11/24 03:28:51;;;;;;;16.27;11.07;;;;;;;1.09;93.80;98055.67;2242664;79;20877;-82
2022/11/24 03:31:51;;;;;;;15.13;10.60;;;;;;;1.08;93.68;98056.91;2242973;79;20866;-82
2022/11/24 03:34:51;;;;;;;16.80;11.13;;;;;;;1.09;93.80;98058.66;2242493;79;21309;-84
2022/11/24 03:37:52;;;;;;;14.00;11.10;;;;;;;1.13;93.87;98060.52;2242976;79;20928;-83
2022/11/24 03:40:53;;;;;;;14.23;10.80;;;;;;;1.14;93.83;98054.55;2243285;79;21269;-86
2022/11/24 03:43:54;;;;;;;13.63;10.57;;;;;;;1.16;93.67;98055.48;2243401;79;20908;-86
2022/11/24 03:46:54;;;;;;;14.63;9.27;;;;;;;1.17;93.44;98054.66;2243590;79;20963;-84
2022/11/24 03:49:55;;;;;;;15.30;10.20;;;;;;;1.14;93.06;98055.84;2242846;79;21414;-84
2022/11/24 03:52:57;;;;;;;12.07;9.97;;;;;;;1.09;93.18;98056.09;2242811;79;21026;-86
2022/11/24 03:55:57;;;;;;;13.80;10.20;;;;;;;1.08;93.13;98055.21;2224170;79;20952;-85
2022/11/24 03:58:58;;;;;;;12.17;10.07;;;;;;;1.06;92.91;98047.86;2243221;79;21054;-84
2022/11/24 04:02:01;;;;;;;14.00;10.13;;;;;;;1.07;93.17;98055.16;2242602;79;20915;-84
2022/11/24 04:05:01;;;;;;;14.03;9.93;;;;;;;1.08;93.19;98059.48;2242967;79;20901;-84
2022/11/24 04:08:02;;;;;;;13.60;10.77;;;;;;;1.05;93.01;98060.23;2246518;79;20980;-85
2022/11/24 04:11:03;;;;;;;15.83;11.27;;;;;;;1.04;93.11;98061.06;2248252;79;20904;-85
2022/11/24 04:14:05;;;;;;;17.13;11.90;;;;;;;1.00;93.19;98063.46;2247025;79;20913;-84
2022/11/24 04:17:05;;;;;;;18.93;11.57;;;;;;;0.97;93.32;98065.51;2246645;79;20940;-84
2022/11/24 04:20:05;;;;;;;13.30;10.23;;;;;;;0.95;93.37;98066.73;2247385;79;21003;-82
2022/11/24 04:23:06;;;;;;;12.30;9.93;;;;;;;0.95;93.52;98064.17;2245486;79;21341;-83
2022/11/24 04:26:06;;;;;;;12.97;9.60;;;;;;;0.99;93.58;98065.16;2246214;79;20908;-83
2022/11/24 04:29:07;;;;;;;14.93;10.97;;;;;;;1.02;93.55;98069.53;2246492;79;20940;-83
2022/11/24 04:32:07;;;;;;;11.63;9.70;;;;;;;0.99;93.33;98066.44;2245932;79;20924;-84
2022/11/24 04:35:07;;;;;;;11.83;9.87;;;;;;;1.05;93.34;98070.52;2245828;79;20960;-82
2022/11/24 04:38:08;;;;;;;13.80;9.80;;;;;;;1.07;93.10;98071.45;2245919;79;20877;-82
2022/11/24 04:41:08;;;;;;;12.30;9.63;;;;;;;1.10;93.08;98071.56;2245144;79;21296;-82
2022/11/24 04:44:09;;;;;;;14.53;9.90;;;;;;;1.08;92.74;98076.18;2245972;79;20952;-84
2022/11/24 04:47:15;;;;;;;17.20;12.27;;;;;;;1.10;93.04;98071.97;2246592;79;20951;-82
2022/11/24 04:50:16;;;;;;;12.87;10.17;;;;;;;1.12;92.83;98079.33;2245077;79;20967;-82
2022/11/24 04:53:16;;;;;;;12.37;9.40;;;;;;;1.09;92.60;98081.79;2245911;79;20972;-82
2022/11/24 04:56:16;;;;;;;12.53;9.30;;;;;;;1.17;93.38;98078.67;2246047;79;20948;-83
2022/11/24 04:59:17;;;;;;;10.80;9.10;;;;;;;1.17;92.84;98079.96;2245411;79;20921;-83
2022/11/24 05:02:17;;;;;;;11.87;9.17;;;;;;;1.17;92.30;98079.96;2245557;79;21332;-82
2022/11/24 05:05:17;;;;;;;12.10;9.47;;;;;;;1.18;92.45;98089.83;2246161;79;20924;-83
2022/11/24 05:08:18;;;;;;;12.90;9.23;;;;;;;1.20;92.42;98085.21;2239409;79;20933;-83
2022/11/24 05:11:18;;;;;;;11.40;9.13;;;;;;;1.22;92.18;98093.86;2237974;79;20941;-84
2022/11/24 05:14:19;;;;;;;15.83;9.53;;;;;;;1.24;92.10;98099.92;2238650;79;20983;-83
2022/11/24 05:17:19;;;;;;;13.03;8.60;;;;;;;1.26;92.17;98095.72;2237820;79;21332;-83
2022/11/24 05:20:19;;;;;;;9.83;8.40;;;;;;;1.27;91.87;98096.18;2238119;79;21142;-83
2022/11/24 05:23:20;;;;;;;13.90;10.60;;;;;;;1.22;91.67;98095.14;2238015;79;20968;-83
2022/11/24 05:26:20;;;;;;;11.57;9.13;;;;;;;1.22;91.68;98099.41;2237384;79;20968;-83
2022/11/24 05:29:21;;;;;;;14.97;9.20;;;;;;;1.26;91.78;98097.41;2238507;79;20904;-83
2022/11/24 05:32:21;;;;;;;11.50;8.70;;;;;;;1.26;91.68;98102.14;2238102;79;20924;-85
2022/11/24 05:35:22;;;;;;;11.17;9.20;;;;;;;1.30;91.64;98103.13;2237408;79;20916;-83
2022/11/24 05:38:22;;;;;;;14.17;9.87;;;;;;;1.30;91.55;98105.70;2238229;80;20921;-82
2022/11/24 05:41:22;;;;;;;18.40;13.93;;;;;;;1.27;91.52;98107.75;2238785;79;20971;-82
2022/11/24 05:44:23;;;;;;;22.73;14.57;;;;;;;1.28;91.52;98109.91;2238579;80;20948;-81
2022/11/24 05:47:24;;;;;;;19.73;15.20;;;;;;;1.24;91.33;98116.64;2239066;79;20960;-82
2022/11/24 05:50:24;;;;;;;21.63;14.80;;;;;;;1.17;91.34;98117.23;2238145;79;20980;-82
2022/11/24 05:53:25;;;;;;;22.57;15.73;;;;;;;1.10;91.44;98117.83;2237893;79;20929;-84
2022/11/24 05:56:24;;;;;;;18.43;14.47;;;;;;;1.05;91.57;98119.35;2238368;79;20936;-82
2022/11/24 05:59:25;;;;;;;21.37;14.23;;;;;;;0.99;91.58;98124.27;2237852;79;20893;-82
2022/11/24 06:02:25;;;;;;;18.20;13.80;;;;;;;0.93;91.54;98133.91;2236597;79;20932;-80
2022/11/24 06:05:26;;;;;;;18.73;13.97;;;;;;;0.81;91.56;98136.38;2237135;79;20916;-83
2022/11/24 06:08:26;;;;;;;17.77;13.77;;;;;;;0.74;92.10;98133.98;2240469;79;20991;-81
2022/11/24 06:11:26;;;;;;;18.00;13.50;;;;;;;0.70;92.31;98135.09;2240300;79;21316;-81
2022/11/24 06:14:27;;;;;;;20.87;13.27;;;;;;;0.66;92.14;98140.92;2240214;79;20948;-81
2022/11/24 06:17:27;;;;;;;16.37;12.60;;;;;;;0.66;92.14;98140.92;2240135;79;21081;-80
2022/11/24 06:20:28;;;;;;;15.63;12.20;;;;;;;0.62;92.66;98142.09;2240586;79;20921;-81
2022/11/24 06:23:28;;;;;;;16.70;13.17;;;;;;;0.62;92.57;98145.06;2239764;79;20953;-82
2022/11/24 06:26:29;;;;;;;16.90;13.63;;;;;;;0.63;92.94;98150.27;2240194;79;21293;-83
2022/11/24 06:29:29;;;;;;;16.90;12.90;;;;;;;0.62;92.71;98157.50;2239746;79;20945;-80
2022/11/24 06:32:29;;;;;;;16.30;12.67;;;;;;;0.60;92.75;98151.42;2238833;79;20929;-82
2022/11/24 06:35:30;;;;;;;17.47;12.97;;;;;;;0.61;92.68;98158.31;2239454;79;20964;-80
2022/11/24 06:38:30;;;;;;;19.10;12.97;;;;;;;0.64;92.90;98159.72;2239885;79;20959;-81
2022/11/24 06:41:31;;;;;;;18.93;13.77;;;;;;;0.72;92.87;98160.43;2239371;79;21072;-80
2022/11/24 06:44:32;;;;;;;16.30;12.80;;;;;;;0.78;92.92;98168.38;2241221;79;20897;-82
2022/11/24 06:47:32;;;;;;;18.30;13.80;;;;;;;0.84;92.61;98167.33;2239967;79;21703;-81
2022/11/24 06:50:33;;;;;;;18.63;13.67;;;;;;;0.89;92.46;98168.41;2240082;79;21726;-82
2022/11/24 06:53:36;;;;;;;16.97;13.20;;;;;;;0.94;92.14;98181.03;2240242;79;20944;-84
2022/11/24 06:56:33;;;;;;;19.70;13.90;;;;;;;0.95;91.99;98182.38;2240228;79;20916;-81
2022/11/24 06:59:34;;;;;;;19.83;13.90;;;;;;;0.92;91.75;98185.23;2239470;79;20901;-81
2022/11/24 07:02:34;;;;;;;17.80;13.33;;;;;;;0.89;91.49;98187.69;2239362;79;20936;-84
2022/11/24 07:05:35;;;;;;;20.40;14.17;;;;;;;0.90;91.74;98186.87;2239258;79;20944;-81
2022/11/24 07:08:35;;;;;;;18.60;13.80;;;;;;;0.91;91.65;98187.34;2235908;79;21004;-81
2022/11/24 07:11:38;;;;;;;22.80;14.97;;;;;;;0.87;91.32;98190.61;2236207;79;20936;-82
2022/11/24 07:14:38;;;;;;;20.03;15.07;;;;;;;0.81;91.23;98186.48;2236256;79;20936;-83
2022/11/24 07:17:39;;;;;;;21.50;14.63;;;;;;;0.81;91.53;98194.19;2236112;79;21304;-81
2022/11/24 07:20:39;;;;;;;18.97;14.87;;;;;;;0.80;91.46;98189.45;2235928;79;20948;-81
2022/11/24 07:23:40;;;;;;;16.97;14.17;;;;;;;0.79;91.50;98192.84;2236001;79;20963;-81
2022/11/24 07:26:40;;;;;;;20.13;14.80;;;;;;;0.72;91.32;98199.84;2236342;79;20912;-81
2022/11/24 07:29:41;;;;;;;18.70;14.80;;;;;;;0.72;91.47;98198.95;2237299;79;20920;-81
2022/11/24 07:32:41;;;;;;;17.50;13.97;;;;;;;0.75;91.60;98200.37;2236339;79;21242;-82
2022/11/24 07:35:41;;;;;;;19.77;14.20;;;;;;;0.76;91.46;98202.13;2236944;79;20904;-81
2022/11/24 07:38:42;;;;;;;15.73;13.47;;;;;;;0.76;91.46;98202.13;2237302;79;20915;-82
2022/11/24 07:41:42;;;;;;;16.63;13.37;;;;;;;0.75;91.39;98200.37;2236681;79;20921;-81
2022/11/24 07:44:43;;;;;;;19.40;14.93;;;;;;;0.80;91.59;98198.86;2236608;79;20917;-82
2022/11/24 07:47:46;;;;;;;21.30;15.33;;;;;;;0.89;91.38;98201.81;2236745;79;20901;-82
2022/11/24 07:50:46;;;;;;;22.77;17.53;;;;;;;0.88;90.86;98206.48;2236499;80;20908;-80
2022/11/24 07:53:47;;;;;;;47.47;36.90;;;;;;;0.94;91.21;98205.45;2237443;79;20940;-83
2022/11/24 07:56:47;;;;;;;34.80;22.27;;;;;;;1.01;90.84;98207.44;2237499;79;20913;-82
2022/11/24 07:59:48;;;;;;;33.07;22.37;;;;;;;1.13;90.62;98206.62;2236670;79;20921;-82
2022/11/24 08:02:48;;;;;;;20.83;16.37;;;;;;;1.26;90.37;98204.98;2235915;79;20948;-82
2022/11/24 08:05:48;;;;;;;26.53;20.20;;;;;;;1.47;89.84;98207.89;2236176;79;20901;-81
2022/11/24 08:08:49;;;;;;;18.33;14.40;;;;;;;1.65;89.53;98207.69;2244175;79;20967;-83
2022/11/24 08:11:49;;;;;;;16.87;13.10;;;;;;;1.76;88.74;98204.72;2245838;79;20928;-82
2022/11/24 08:14:50;;;;;;;17.07;13.27;;;;;;;1.80;88.24;98209.16;2245550;79;21023;-82
2022/11/24 08:17:50;;;;;;;17.17;14.27;;;;;;;1.86;87.98;98215.80;2245908;79;20909;-81
2022/11/24 08:20:51;;;;;;;21.90;14.03;;;;;;;1.88;88.29;98215.45;2245340;79;20888;-81
2022/11/24 08:23:51;;;;;;;17.00;13.07;;;;;;;1.90;88.01;98210.36;2245246;79;20968;-81
2022/11/24 08:26:51;;;;;;;16.07;13.40;;;;;;;1.88;88.05;98215.86;2245795;79;20881;-82
2022/11/24 08:29:52;;;;;;;13.67;12.17;;;;;;;1.83;87.74;98218.27;2246168;79;20987;-80
2022/11/24 08:32:52;;;;;;;14.00;11.13;;;;;;;1.73;87.41;98214.86;2246168;79;20928;-82
2022/11/24 08:35:52;;;;;;;13.47;11.57;;;;;;;1.72;87.84;98222.12;2246256;79;21630;-81
2022/11/24 08:38:53;;;;;;;12.37;10.30;;;;;;;1.68;87.36;98222.83;2247626;79;20984;-80
2022/11/24 08:41:53;;;;;;;13.23;10.80;;;;;;;1.57;87.51;98224.13;2247218;79;20928;-82
2022/11/24 08:44:54;;;;;;;14.73;11.13;;;;;;;1.56;87.91;98223.66;2246815;79;20951;-81
2022/11/24 08:47:54;;;;;;;12.60;8.57;;;;;;;1.58;88.01;98229.74;2246408;79;20955;-80
2022/11/24 08:50:55;;;;;;;9.57;7.80;;;;;;;1.44;86.60;98236.07;2246063;79;21359;-81
2022/11/24 08:53:55;;;;;;;9.13;8.23;;;;;;;1.44;86.60;98236.07;2245776;79;20948;-82
2022/11/24 08:56:55;;;;;;;9.63;8.27;;;;;;;1.38;87.35;98229.00;2246193;79;20909;-82
2022/11/24 08:59:56;;;;;;;9.97;7.90;;;;;;;1.39;87.11;98232.04;2246570;79;20900;-81
2022/11/24 09:02:56;;;;;;;8.83;7.60;;;;;;;1.45;87.32;98236.53;2246118;79;21016;-81
2022/11/24 09:05:58;;;;;;;10.83;8.30;;;;;;;1.53;87.47;98241.14;2215724;79;20904;-80
2022/11/24 09:08:59;;;;;;;11.13;8.17;;;;;;;1.64;86.92;98246.69;2241561;79;20999;-80
2022/11/24 09:11:59;;;;;;;8.53;7.73;;;;;;;1.67;86.61;98246.80;2239812;79;21284;-82
2022/11/24 09:15:00;;;;;;;9.33;8.30;;;;;;;1.78;86.63;98235.65;2239719;79;20944;-80
2022/11/24 09:18:00;;;;;;;9.87;8.43;;;;;;;1.91;86.27;98241.70;2239843;79;20877;-80
2022/11/24 09:21:00;;;;;;;10.97;9.67;;;;;;;1.97;86.08;98245.78;2239680;79;20984;-80
2022/11/24 09:24:01;;;;;;;9.63;8.37;;;;;;;2.00;85.09;98245.02;2240063;79;21391;-80
2022/11/24 09:27:01;;;;;;;9.47;8.47;;;;;;;1.89;84.00;98250.66;2240563;79;20963;-81
2022/11/24 09:30:02;;;;;;;10.33;8.80;;;;;;;1.71;84.21;98248.67;2240317;79;20929;-81
2022/11/24 09:33:02;;;;;;;12.27;10.73;;;;;;;1.67;85.24;98253.23;2240341;79;20945;-82
2022/11/24 09:36:03;;;;;;;10.07;9.00;;;;;;;1.60;85.18;98246.11;2240074;79;20912;-81
2022/11/24 09:39:03;;;;;;;11.93;9.10;;;;;;;1.60;85.18;98246.11;2239467;79;20877;-79
2022/11/24 09:42:03;;;;;;;11.93;10.67;;;;;;;1.55;84.96;98252.78;2240340;79;20897;-80
2022/11/24 09:45:05;;;;;;;10.73;9.57;;;;;;;1.44;85.35;98249.80;2239855;79;20940;-79
2022/11/24 09:48:04;;;;;;;10.80;9.70;;;;;;;1.46;85.50;98250.73;2238889;79;20916;-80
2022/11/24 09:51:05;;;;;;;11.77;10.40;;;;;;;1.46;85.73;98251.15;2238867;79;20940;-80
2022/11/24 09:54:05;;;;;;;13.40;10.40;;;;;;;1.54;85.81;98254.89;2240214;79;20995;-81
2022/11/24 09:57:05;;;;;;;15.63;11.43;;;;;;;1.54;85.65;98249.33;2240452;79;20948;-82
2022/11/24 10:00:06;;;;;;;18.50;14.17;;;;;;;1.54;86.21;98252.31;2240019;79;20900;-78
2022/11/24 10:03:06;;;;;;;27.97;18.23;;;;;;;1.58;85.85;98252.89;2240312;79;20988;-81
2022/11/24 10:06:07;;;;;;;23.17;15.70;;;;;;;1.53;86.09;98251.84;2239856;79;21607;-81
2022/11/24 10:09:07;;;;;;;23.50;15.80;;;;;;;1.44;85.83;98254.95;2242923;79;21312;-81
2022/11/24 10:12:07;;;;;;;20.53;14.13;;;;;;;1.35;85.68;98255.88;2243573;79;20928;-81
2022/11/24 10:15:08;;;;;;;19.57;15.10;;;;;;;1.31;85.68;98255.70;2244059;79;20943;-81
2022/11/24 10:18:08;;;;;;;24.53;16.60;;;;;;;1.37;85.66;98258.52;2243575;79;20908;-81
2022/11/24 10:21:09;;;;;;;20.67;15.37;;;;;;;1.40;85.37;98253.48;2243857;79;21335;-80
2022/11/24 10:24:09;;;;;;;30.07;18.77;;;;;;;1.57;85.89;98257.16;2243447;79;21291;-81
2022/11/24 10:27:09;;;;;;;41.17;21.87;;;;;;;1.75;85.62;98255.72;2243292;79;20963;-80
2022/11/24 10:30:10;;;;;;;44.70;21.70;;;;;;;1.85;85.07;98254.35;2243226;79;20924;-80
2022/11/24 10:33:11;;;;;;;50.70;23.77;;;;;;;1.77;83.97;98264.37;2242458;79;20980;-80
2022/11/24 10:36:11;;;;;;;45.63;23.37;;;;;;;1.68;84.55;98257.56;2242868;79;20944;-82
2022/11/24 10:39:11;;;;;;;42.20;23.87;;;;;;;1.61;84.71;98263.30;2243096;79;20920;-80
2022/11/24 10:42:12;;;;;;;43.93;25.00;;;;;;;1.54;85.11;98268.63;2242974;79;21319;-81
2022/11/24 10:45:12;;;;;;;41.73;25.53;;;;;;;1.50;85.04;98267.16;2242908;79;20960;-81
2022/11/24 10:48:12;;;;;;;31.17;21.07;;;;;;;1.51;85.48;98269.80;2243358;79;20964;-81
2022/11/24 10:51:15;;;;;;;26.83;19.43;;;;;;;1.48;85.46;98271.37;2243319;79;20885;-82
2022/11/24 10:54:15;;;;;;;27.83;20.63;;;;;;;1.45;85.58;98273.42;2241612;79;20936;-81
2022/11/24 10:57:16;;;;;;;27.47;19.70;;;;;;;1.49;85.58;98276.58;2244481;79;20928;-82
2022/11/24 11:00:16;;;;;;;30.20;20.70;;;;;;;1.43;85.41;98276.34;2244993;79;20910;-80
2022/11/24 11:03:17;;;;;;;31.27;21.07;;;;;;;1.40;85.28;98281.78;2244287;79;20972;-81
2022/11/24 11:06:17;;;;;;;31.97;21.07;;;;;;;1.34;85.49;98278.97;2244407;79;20901;-82
2022/11/24 11:09:18;;;;;;;33.33;21.07;;;;;;;1.24;85.50;98285.45;2244261;79;20964;-82
2022/11/24 11:12:19;;;;;;;33.90;20.93;;;;;;;1.16;86.30;98287.72;2243511;79;20900;-81
2022/11/24 11:15:18;;;;;;;26.97;19.07;;;;;;;1.08;86.29;98286.53;2244814;79;21147;-81
2022/11/24 11:18:19;;;;;;;29.17;20.23;;;;;;;1.01;85.81;98291.38;2244540;79;20951;-82
2022/11/24 11:21:19;;;;;;;30.90;20.47;;;;;;;0.89;86.00;98292.63;2244178;79;21637;-81
2022/11/24 11:24:20;;;;;;;29.43;20.13;;;;;;;0.83;86.78;98290.19;2244405;79;21376;-83
2022/11/24 11:27:20;;;;;;;26.67;19.10;;;;;;;0.77;85.94;98289.94;2244143;79;20896;-81
2022/11/24 11:30:20;;;;;;;31.53;20.87;;;;;;;0.66;86.23;98289.90;2244677;79;20928;-82
2022/11/24 11:33:21;;;;;;;30.70;18.97;;;;;;;0.54;86.83;98296.69;2244123;79;21002;-80
2022/11/24 11:36:21;;;;;;;29.67;18.97;;;;;;;0.50;87.14;98297.38;2243736;79;20952;-81
2022/11/24 11:39:22;;;;;;;28.37;17.90;;;;;;;0.42;87.36;98295.77;2243306;79;20901;-83
2022/11/24 11:42:26;;;;;;;30.83;19.00;;;;;;;0.34;87.17;98300.09;2243966;79;21606;-81
2022/11/24 11:45:24;;;;;;;27.60;17.90;;;;;;;0.20;87.84;98309.37;2240698;79;20892;-82
2022/11/24 11:48:25;;;;;;;27.93;18.30;;;;;;;0.13;88.47;98309.03;2244078;79;20913;-83
2022/11/24 11:51:25;;;;;;;28.33;17.30;;;;;;;0.06;88.78;98319.84;2243960;79;20912;-83
2022/11/24 11:54:26;;;;;;;28.33;18.47;;;;;;;-0.03;89.28;98317.30;2244234;79;21340;-83
2022/11/24 11:57:26;;;;;;;30.33;18.47;;;;;;;-0.03;89.59;98318.59;2243628;79;20893;-82
2022/11/24 12:00:26;;;;;;;30.87;19.80;;;;;;;-0.03;89.70;98318.59;2243753;79;20917;-83
2022/11/24 12:03:28;;;;;;;29.10;19.53;;;;;;;-0.04;90.12;98324.53;2243894;79;21024;-82
2022/11/24 12:06:29;;;;;;;32.00;21.57;;;;;;;-0.02;90.28;98316.49;2243664;79;20917;-81
2022/11/24 12:09:29;;;;;;;34.97;22.97;;;;;;;0.02;90.40;98316.66;2243245;79;20953;-82
2022/11/24 12:12:30;;;;;;;28.53;19.10;;;;;;;0.05;90.78;98321.53;2243476;79;20948;-82
2022/11/24 12:15:30;;;;;;;33.20;21.63;;;;;;;0.08;90.84;98324.23;2243553;79;21098;-82
2022/11/24 12:18:31;;;;;;;32.50;19.60;;;;;;;0.10;90.63;98319.16;2243355;79;21254;-82
2022/11/24 12:21:31;;;;;;;29.27;19.70;;;;;;;0.12;90.91;98320.11;2242195;79;20932;-83
2022/11/24 12:24:31;;;;;;;37.67;22.40;;;;;;;0.15;90.86;98326.25;2242518;79;20925;-82
2022/11/24 12:27:32;;;;;;;32.87;21.17;;;;;;;0.17;90.79;98328.48;2244181;79;21300;-83
2022/11/24 12:30:32;;;;;;;26.90;18.20;;;;;;;0.20;90.68;98326.45;2243493;79;20940;-82
2022/11/24 12:33:33;;;;;;;29.90;19.53;;;;;;;0.21;90.26;98326.52;2243254;79;21297;-81
2022/11/24 12:36:33;;;;;;;29.77;18.37;;;;;;;0.20;90.17;98329.02;2243735;79;20920;-82
2022/11/24 12:39:34;;;;;;;28.30;18.43;;;;;;;0.23;89.89;98325.30;2243277;79;20924;-80
2022/11/24 12:42:34;;;;;;;35.17;21.30;;;;;;;0.27;89.84;98327.20;2243727;79;20903;-82
2022/11/24 12:45:34;;;;;;;33.97;20.40;;;;;;;0.28;89.39;98327.67;2242991;79;21269;-82
2022/11/24 12:48:35;;;;;;;29.23;19.57;;;;;;;0.34;89.45;98336.92;2243298;79;20976;-81
2022/11/24 12:51:35;;;;;;;33.03;20.90;;;;;;;0.43;89.37;98327.05;2243472;79;20927;-81
2022/11/24 12:54:35;;;;;;;39.57;26.70;;;;;;;0.53;88.75;98336.90;2242850;79;21364;-81
2022/11/24 12:57:36;;;;;;;31.67;21.67;;;;;;;0.53;88.62;98338.19;2243165;79;20955;-81
2022/11/24 13:00:36;;;;;;;35.53;21.63;;;;;;;0.52;88.42;98335.14;2243986;79;20924;-81
2022/11/24 13:03:37;;;;;;;28.30;19.13;;;;;;;0.51;88.78;98341.09;2243645;79;21019;-82
2022/11/24 13:06:37;;;;;;;30.43;19.23;;;;;;;0.47;88.34;98346.91;2243469;79;20901;-82
2022/11/24 13:09:37;;;;;;;30.17;19.77;;;;;;;0.39;88.62;98350.83;2238522;79;20896;-81
2022/11/24 13:12:38;;;;;;;28.53;18.87;;;;;;;0.38;88.93;98348.20;2236591;79;20889;-80
2022/11/24 13:15:38;;;;;;;29.87;19.30;;;;;;;0.39;88.90;98348.27;2236015;79;20917;-81
2022/11/24 13:18:39;;;;;;;37.30;21.43;;;;;;;0.45;89.01;98345.97;2235931;79;21297;-81
2022/11/24 13:21:39;;;;;;;33.57;20.50;;;;;;;0.50;88.82;98347.45;2235846;80;20893;-81
2022/11/24 13:24:40;;;;;;;34.30;20.70;;;;;;;0.60;88.92;98347.03;2236161;79;20956;-81
2022/11/24 13:27:40;;;;;;;28.43;19.07;;;;;;;0.73;88.58;98346.73;2236157;79;21269;-83
2022/11/24 13:30:40;;;;;;;22.70;15.93;;;;;;;0.73;87.94;98350.99;2235883;79;21364;-82
2022/11/24 13:33:41;;;;;;;24.20;17.00;;;;;;;0.64;87.60;98351.48;2236136;79;20976;-80
2022/11/24 13:36:41;;;;;;;20.43;15.40;;;;;;;0.57;87.93;98353.31;2236035;79;20947;-82
2022/11/24 13:39:42;;;;;;;23.90;15.87;;;;;;;0.56;87.82;98353.72;2236328;79;21717;-82
2022/11/24 13:42:42;;;;;;;23.77;16.63;;;;;;;0.50;88.12;98365.42;2237945;79;20944;-82
2022/11/24 13:45:45;;;;;;;25.63;16.40;;;;;;;0.43;87.80;98365.56;2237122;79;21033;-81
2022/11/24 13:48:43;;;;;;;23.50;16.67;;;;;;;0.42;88.22;98368.94;2237602;79;20892;-82
2022/11/24 13:51:43;;;;;;;23.90;16.37;;;;;;;0.38;88.41;98372.19;2237255;79;20913;-82
2022/11/24 13:54:44;;;;;;;21.37;15.27;;;;;;;0.38;88.69;98370.02;2237433;79;21919;-83
2022/11/24 13:57:44;;;;;;;24.37;16.57;;;;;;;0.33;88.72;98373.67;2237827;79;20885;-83
2022/11/24 14:00:44;;;;;;;22.83;16.03;;;;;;;0.34;88.87;98379.28;2237546;79;20893;-81